PWSweather.com
Personal Weather Stations
Station Observations
KILMORRI1
Goose Lake, Morris, IL 60450

Goose LakeMorris, IL 60450

Lat: 41.34, Lon: -88.3

Elevation: 523

Station Type:

www.gooselakeweather.com

High Low Average
Temperature 88.2°F31.2°C 54.3°F12.4°C 73.3°F22.9°C
Dew Point 72.2°F22.3°C 53.2°F11.8°C 63.5°F17.5°C
Winds 6.9 mph 11.1 kmh Calm Calm 1.0 mph S1.6 kmh S
Wind Gusts 8.1 mph13.0 kmh -- 2.0 mph3.2 kmh
Humidity 98% 41% 75%
Pressure 30.06 in1017.9 mb 29.97 in1014.9 mb -
Precipitation 0.00 in0.0 mm - -
Hour Temp Dew Point Humidity Winds Wind Gusts Pressure Precip Precip Rate Daily Precip Total
12:00 AM 61.8°F16.6°C 59.2°F15.1°C 91% 1.2 mph SE1.9 kmh SE 2.3 mph3.7 kmh 30.01 in1016.3 mb - 0.00 in0.0 mm 0.00 in0.0 mm
12:10 AM 60.9°F16.1°C 58.3°F14.6°C 91% 2.3 mph SE3.7 kmh SE 3.5 mph5.6 kmh 30.01 in1016.3 mb - 0.00 in0.0 mm 0.00 in0.0 mm
12:20 AM 60.4°F15.8°C 58.0°F14.4°C 92% Calm Calm -- 30.02 in1016.6 mb - 0.00 in0.0 mm 0.00 in0.0 mm
12:30 AM 60.2°F15.7°C 58.2°F14.6°C 93% Calm Calm -- 30.01 in1016.3 mb - 0.00 in0.0 mm 0.00 in0.0 mm
12:40 AM 59.8°F15.4°C 57.8°F14.3°C 93% Calm Calm -- 30.02 in1016.6 mb - 0.00 in0.0 mm 0.00 in0.0 mm
12:50 AM 59.6°F15.3°C 57.9°F14.4°C 94% Calm Calm -- 30.02 in1016.6 mb - 0.00 in0.0 mm 0.00 in0.0 mm
01:00 AM 59.0°F15.0°C 57.3°F14.1°C 94% Calm Calm -- 30.01 in1016.3 mb - 0.00 in0.0 mm 0.00 in0.0 mm
01:10 AM 58.6°F14.8°C 57.2°F14.0°C 95% Calm Calm -- 30.02 in1016.6 mb - 0.00 in0.0 mm 0.00 in0.0 mm
01:20 AM 58.4°F14.7°C 57.0°F13.9°C 95% Calm Calm -- 30.02 in1016.6 mb - 0.00 in0.0 mm 0.00 in0.0 mm
01:30 AM 58.1°F14.5°C 56.7°F13.7°C 95% Calm Calm -- 30.01 in1016.3 mb - 0.00 in0.0 mm 0.00 in0.0 mm
01:40 AM 57.6°F14.2°C 56.2°F13.4°C 95% Calm Calm -- 30.02 in1016.6 mb - 0.00 in0.0 mm 0.00 in0.0 mm
01:50 AM 57.5°F14.2°C 56.4°F13.6°C 96% Calm Calm -- 30.02 in1016.6 mb - 0.00 in0.0 mm 0.00 in0.0 mm
02:00 AM 57.7°F14.3°C 56.5°F13.6°C 96% Calm Calm -- 30.02 in1016.6 mb - 0.00 in0.0 mm 0.00 in0.0 mm
02:10 AM 57.3°F14.1°C 56.2°F13.4°C 96% Calm Calm -- 30.02 in1016.6 mb - 0.00 in0.0 mm 0.00 in0.0 mm
02:20 AM 57.0°F13.9°C 55.9°F13.3°C 96% Calm Calm -- 30.02 in1016.6 mb - 0.00 in0.0 mm 0.00 in0.0 mm
02:30 AM 56.9°F13.8°C 55.8°F13.2°C 96% Calm Calm -- 30.03 in1016.9 mb - 0.00 in0.0 mm 0.00 in0.0 mm
02:40 AM 56.9°F13.8°C 55.8°F13.2°C 96% Calm Calm -- 30.03 in1016.9 mb - 0.00 in0.0 mm 0.00 in0.0 mm
02:50 AM 57.0°F13.9°C 56.1°F13.4°C 97% Calm Calm -- 30.03 in1016.9 mb - 0.00 in0.0 mm 0.00 in0.0 mm
03:00 AM 56.6°F13.7°C 55.8°F13.2°C 97% Calm Calm -- 30.02 in1016.6 mb - 0.00 in0.0 mm 0.00 in0.0 mm
03:10 AM 55.9°F13.3°C 54.8°F12.7°C 96% 1.2 mph SE1.9 kmh SE 1.2 mph1.9 kmh 30.02 in1016.6 mb - 0.00 in0.0 mm 0.00 in0.0 mm
03:20 AM 55.8°F13.2°C 55.0°F12.8°C 97% Calm Calm -- 30.02 in1016.6 mb - 0.00 in0.0 mm 0.00 in0.0 mm
03:30 AM 54.9°F12.7°C 53.8°F12.1°C 96% Calm Calm -- 30.02 in1016.6 mb - 0.00 in0.0 mm 0.00 in0.0 mm
03:40 AM 54.8°F12.7°C 54.0°F12.2°C 97% Calm Calm -- 30.02 in1016.6 mb - 0.00 in0.0 mm 0.00 in0.0 mm
03:50 AM 54.8°F12.7°C 53.9°F12.2°C 97% Calm Calm -- 30.02 in1016.6 mb - 0.00 in0.0 mm 0.00 in0.0 mm
04:00 AM 54.7°F12.6°C 53.9°F12.2°C 97% Calm Calm -- 30.02 in1016.6 mb - 0.00 in0.0 mm 0.00 in0.0 mm
04:10 AM 54.3°F12.4°C 53.2°F11.8°C 96% Calm Calm -- 30.02 in1016.6 mb - 0.00 in0.0 mm 0.00 in0.0 mm
04:20 AM 54.3°F12.4°C 53.5°F11.9°C 97% 1.2 mph SE1.9 kmh SE 2.3 mph3.7 kmh 30.02 in1016.6 mb - 0.00 in0.0 mm 0.00 in0.0 mm
04:30 AM 55.2°F12.9°C 54.4°F12.4°C 97% Calm Calm -- 30.02 in1016.6 mb - 0.00 in0.0 mm 0.00 in0.0 mm
04:40 AM 55.5°F13.1°C 54.7°F12.6°C 97% Calm Calm -- 30.02 in1016.6 mb - 0.00 in0.0 mm 0.00 in0.0 mm
04:50 AM 55.8°F13.2°C 54.9°F12.7°C 97% Calm Calm -- 30.02 in1016.6 mb - 0.00 in0.0 mm 0.00 in0.0 mm
05:00 AM 55.4°F13.0°C 54.6°F12.6°C 97% Calm Calm -- 30.02 in1016.6 mb - 0.00 in0.0 mm 0.00 in0.0 mm
05:10 AM 54.9°F12.7°C 54.1°F12.3°C 97% Calm Calm -- 30.02 in1016.6 mb - 0.00 in0.0 mm 0.00 in0.0 mm
05:20 AM 54.5°F12.5°C 53.6°F12.0°C 97% Calm Calm -- 30.02 in1016.6 mb - 0.00 in0.0 mm 0.00 in0.0 mm
05:30 AM 54.5°F12.5°C 53.7°F12.1°C 97% Calm Calm -- 30.02 in1016.6 mb - 0.00 in0.0 mm 0.00 in0.0 mm
05:40 AM 54.4°F12.4°C 53.5°F11.9°C 97% Calm Calm -- 30.02 in1016.6 mb - 0.00 in0.0 mm 0.00 in0.0 mm
05:50 AM 54.7°F12.6°C 53.9°F12.2°C 97% Calm Calm -- 30.02 in1016.6 mb - 0.00 in0.0 mm 0.00 in0.0 mm
06:00 AM 55.9°F13.3°C 55.0°F12.8°C 97% Calm Calm -- 30.01 in1016.3 mb - 0.00 in0.0 mm 0.00 in0.0 mm
06:10 AM 56.1°F13.4°C 55.2°F12.9°C 97% Calm Calm -- 30.02 in1016.6 mb - 0.00 in0.0 mm 0.00 in0.0 mm
06:20 AM 57.2°F14.0°C 56.4°F13.6°C 97% Calm Calm -- 30.02 in1016.6 mb - 0.00 in0.0 mm 0.00 in0.0 mm
06:30 AM 58.6°F14.8°C 58.1°F14.5°C 98% Calm Calm -- 30.03 in1016.9 mb - 0.00 in0.0 mm 0.00 in0.0 mm
06:40 AM 59.0°F15.0°C 58.4°F14.7°C 98% Calm Calm -- 30.03 in1016.9 mb - 0.00 in0.0 mm 0.00 in0.0 mm
06:50 AM 59.6°F15.3°C 59.0°F15.0°C 98% Calm Calm -- 30.03 in1016.9 mb - 0.00 in0.0 mm 0.00 in0.0 mm
07:00 AM 60.4°F15.8°C 59.5°F15.3°C 97% Calm Calm -- 30.03 in1016.9 mb - 0.00 in0.0 mm 0.00 in0.0 mm
07:10 AM 61.6°F16.4°C 61.0°F16.1°C 98% Calm Calm -- 30.03 in1016.9 mb - 0.00 in0.0 mm 0.00 in0.0 mm
07:20 AM 62.7°F17.1°C 61.8°F16.6°C 97% Calm Calm -- 30.03 in1016.9 mb - 0.00 in0.0 mm 0.00 in0.0 mm
07:30 AM 63.5°F17.5°C 62.3°F16.8°C 96% Calm Calm -- 30.03 in1016.9 mb - 0.00 in0.0 mm 0.00 in0.0 mm
07:40 AM 64.3°F17.9°C 62.8°F17.1°C 95% Calm Calm -- 30.03 in1016.9 mb - 0.00 in0.0 mm 0.00 in0.0 mm
07:50 AM 66.2°F19.0°C 64.1°F17.8°C 93% Calm Calm -- 30.03 in1016.9 mb - 0.00 in0.0 mm 0.00 in0.0 mm
08:00 AM 67.9°F19.9°C 64.5°F18.1°C 89% Calm Calm 1.2 mph1.9 kmh 30.04 in1017.3 mb - 0.00 in0.0 mm 0.00 in0.0 mm
08:10 AM 68.6°F20.3°C 64.2°F17.9°C 86% Calm Calm -- 30.03 in1016.9 mb - 0.00 in0.0 mm 0.00 in0.0 mm
08:20 AM 70.2°F21.2°C 65.1°F18.4°C 84% 1.2 mph SE1.9 kmh SE 3.5 mph5.6 kmh 30.03 in1016.9 mb - 0.00 in0.0 mm 0.00 in0.0 mm
08:30 AM 72.2°F22.3°C 64.6°F18.1°C 77% 1.2 mph NE1.9 kmh NE 3.5 mph5.6 kmh 30.03 in1016.9 mb - 0.00 in0.0 mm 0.00 in0.0 mm
08:40 AM 72.3°F22.4°C 63.5°F17.5°C 74% Calm Calm -- 30.03 in1016.9 mb - 0.00 in0.0 mm 0.00 in0.0 mm
08:50 AM 72.6°F22.6°C 62.3°F16.8°C 70% Calm Calm 2.3 mph3.7 kmh 30.03 in1016.9 mb - 0.00 in0.0 mm 0.00 in0.0 mm
09:00 AM 73.3°F22.9°C 62.1°F16.7°C 68% 2.3 mph SSW3.7 kmh SSW 3.5 mph5.6 kmh 30.04 in1017.3 mb - 0.00 in0.0 mm 0.00 in0.0 mm
09:10 AM 73.5°F23.1°C 62.7°F17.1°C 69% 1.2 mph S1.9 kmh S 1.2 mph1.9 kmh 30.04 in1017.3 mb - 0.00 in0.0 mm 0.00 in0.0 mm
09:20 AM 74.8°F23.8°C 63.9°F17.7°C 69% 1.2 mph S1.9 kmh S 1.2 mph1.9 kmh 30.04 in1017.3 mb - 0.00 in0.0 mm 0.00 in0.0 mm
09:30 AM 75.2°F24.0°C 63.9°F17.7°C 68% 1.2 mph S1.9 kmh S 1.2 mph1.9 kmh 30.04 in1017.3 mb - 0.00 in0.0 mm 0.00 in0.0 mm
09:40 AM 76.8°F24.9°C 65.5°F18.6°C 68% 2.3 mph S3.7 kmh S 3.5 mph5.6 kmh 30.05 in1017.6 mb - 0.00 in0.0 mm 0.00 in0.0 mm
09:50 AM 76.9°F24.9°C 66.0°F18.9°C 69% 2.3 mph S3.7 kmh S 3.5 mph5.6 kmh 30.05 in1017.6 mb - 0.00 in0.0 mm 0.00 in0.0 mm
10:00 AM 77.8°F25.4°C 67.2°F19.6°C 70% 1.2 mph S1.9 kmh S 3.5 mph5.6 kmh 30.05 in1017.6 mb - 0.00 in0.0 mm 0.00 in0.0 mm
10:10 AM 78.0°F25.6°C 64.8°F18.2°C 64% Calm Calm 1.2 mph1.9 kmh 30.05 in1017.6 mb - 0.00 in0.0 mm 0.00 in0.0 mm
10:20 AM 78.8°F26.0°C 66.0°F18.9°C 65% 4.6 mph SW7.4 kmh SW 5.8 mph9.3 kmh 30.05 in1017.6 mb - 0.00 in0.0 mm 0.00 in0.0 mm
10:30 AM 78.9°F26.1°C 65.2°F18.4°C 63% 2.3 mph S3.7 kmh S 3.5 mph5.6 kmh 30.05 in1017.6 mb - 0.00 in0.0 mm 0.00 in0.0 mm
10:40 AM 79.7°F26.5°C 63.1°F17.3°C 57% 1.2 mph SSW1.9 kmh SSW 3.5 mph5.6 kmh 30.05 in1017.6 mb - 0.00 in0.0 mm 0.00 in0.0 mm
10:50 AM 80.1°F26.7°C 64.0°F17.8°C 58% 2.3 mph NW3.7 kmh NW 2.3 mph3.7 kmh 30.05 in1017.6 mb - 0.00 in0.0 mm 0.00 in0.0 mm
11:00 AM 79.4°F26.3°C 62.4°F16.9°C 56% 1.2 mph NW1.9 kmh NW 3.5 mph5.6 kmh 30.06 in1017.9 mb - 0.00 in0.0 mm 0.00 in0.0 mm
11:10 AM 80.9°F27.2°C 63.2°F17.3°C 55% 2.3 mph NW3.7 kmh NW 5.8 mph9.3 kmh 30.05 in1017.6 mb - 0.00 in0.0 mm 0.00 in0.0 mm
11:20 AM 80.9°F27.2°C 64.7°F18.2°C 58% 6.9 mph WSW11.1 kmh WSW 8.1 mph13.0 kmh 30.05 in1017.6 mb - 0.00 in0.0 mm 0.00 in0.0 mm
11:30 AM 81.2°F27.3°C 64.0°F17.8°C 56% 1.2 mph WNW1.9 kmh WNW 3.5 mph5.6 kmh 30.05 in1017.6 mb - 0.00 in0.0 mm 0.00 in0.0 mm
11:40 AM 81.3°F27.4°C 62.0°F16.7°C 52% 2.3 mph SSW3.7 kmh SSW 4.6 mph7.4 kmh 30.05 in1017.6 mb - 0.00 in0.0 mm 0.00 in0.0 mm
11:50 AM 81.6°F27.6°C 62.8°F17.1°C 53% 2.3 mph NE3.7 kmh NE 3.5 mph5.6 kmh 30.05 in1017.6 mb - 0.00 in0.0 mm 0.00 in0.0 mm
12:00 PM 81.9°F27.7°C 63.6°F17.6°C 54% 1.2 mph S1.9 kmh S 3.5 mph5.6 kmh 30.05 in1017.6 mb - 0.00 in0.0 mm 0.00 in0.0 mm
12:10 PM 82.4°F28.0°C 65.1°F18.4°C 56% 1.2 mph WSW1.9 kmh WSW 5.8 mph9.3 kmh 30.04 in1017.3 mb - 0.00 in0.0 mm 0.00 in0.0 mm
12:20 PM 83.1°F28.4°C 66.3°F19.1°C 57% 1.2 mph SW1.9 kmh SW 3.5 mph5.6 kmh 30.04 in1017.3 mb - 0.00 in0.0 mm 0.00 in0.0 mm
12:30 PM 82.8°F28.2°C 63.4°F17.4°C 52% 2.3 mph NNE3.7 kmh NNE 3.5 mph5.6 kmh 30.04 in1017.3 mb - 0.00 in0.0 mm 0.00 in0.0 mm
12:40 PM 84.7°F29.3°C 65.7°F18.7°C 53% 1.2 mph NW1.9 kmh NW 3.5 mph5.6 kmh 30.04 in1017.3 mb - 0.00 in0.0 mm 0.00 in0.0 mm
12:50 PM 84.0°F28.9°C 61.6°F16.4°C 47% 5.8 mph N9.3 kmh N 5.8 mph9.3 kmh 30.04 in1017.3 mb - 0.00 in0.0 mm 0.00 in0.0 mm
01:00 PM 84.8°F29.3°C 64.1°F17.8°C 50% 2.3 mph NW3.7 kmh NW 3.5 mph5.6 kmh 30.04 in1017.3 mb - 0.00 in0.0 mm 0.00 in0.0 mm
01:10 PM 84.5°F29.2°C 62.1°F16.7°C 47% 3.5 mph NW5.6 kmh NW 8.1 mph13.0 kmh 30.04 in1017.3 mb - 0.00 in0.0 mm 0.00 in0.0 mm
01:20 PM 85.5°F29.7°C 63.6°F17.6°C 48% 2.3 mph NW3.7 kmh NW 3.5 mph5.6 kmh 30.03 in1016.9 mb - 0.00 in0.0 mm 0.00 in0.0 mm
01:30 PM 85.9°F29.9°C 63.3°F17.4°C 47% 2.3 mph ENE3.7 kmh ENE 3.5 mph5.6 kmh 30.03 in1016.9 mb - 0.00 in0.0 mm 0.00 in0.0 mm
01:40 PM 86.0°F30.0°C 64.1°F17.8°C 48% 2.3 mph NNE3.7 kmh NNE 3.5 mph5.6 kmh 30.03 in1016.9 mb - 0.00 in0.0 mm 0.00 in0.0 mm
01:50 PM 85.8°F29.9°C 65.6°F18.7°C 51% 2.3 mph N3.7 kmh N 8.1 mph13.0 kmh 30.03 in1016.9 mb - 0.00 in0.0 mm 0.00 in0.0 mm
02:00 PM 86.4°F30.2°C 64.4°F18.0°C 48% 3.5 mph NW5.6 kmh NW 6.9 mph11.1 kmh 30.02 in1016.6 mb - 0.00 in0.0 mm 0.00 in0.0 mm
02:10 PM 86.6°F30.3°C 64.0°F17.8°C 47% 3.5 mph NNW5.6 kmh NNW 5.8 mph9.3 kmh 30.02 in1016.6 mb - 0.00 in0.0 mm 0.00 in0.0 mm
02:20 PM 87.4°F30.8°C 64.0°F17.8°C 46% 1.2 mph NNW1.9 kmh NNW 8.1 mph13.0 kmh 30.02 in1016.6 mb - 0.00 in0.0 mm 0.00 in0.0 mm
02:30 PM 87.1°F30.6°C 63.2°F17.3°C 45% 2.3 mph W3.7 kmh W 5.8 mph9.3 kmh 30.01 in1016.3 mb - 0.00 in0.0 mm 0.00 in0.0 mm
02:40 PM 86.9°F30.5°C 61.1°F16.2°C 42% 2.3 mph NNW3.7 kmh NNW 3.5 mph5.6 kmh 30.01 in1016.3 mb - 0.00 in0.0 mm 0.00 in0.0 mm
02:50 PM 86.4°F30.2°C 61.3°F16.3°C 43% 2.3 mph NNW3.7 kmh NNW 3.5 mph5.6 kmh 30.01 in1016.3 mb - 0.00 in0.0 mm 0.00 in0.0 mm
03:00 PM 87.9°F31.1°C 63.3°F17.4°C 44% 2.3 mph ENE3.7 kmh ENE 2.3 mph3.7 kmh 30.01 in1016.3 mb - 0.00 in0.0 mm 0.00 in0.0 mm
03:10 PM 87.8°F31.0°C 61.2°F16.2°C 41% 4.6 mph NNW7.4 kmh NNW 6.9 mph11.1 kmh 30.00 in1015.9 mb - 0.00 in0.0 mm 0.00 in0.0 mm
03:20 PM 88.2°F31.2°C 63.5°F17.5°C 44% 1.2 mph NW1.9 kmh NW 6.9 mph11.1 kmh 30.00 in1015.9 mb - 0.00 in0.0 mm 0.00 in0.0 mm
03:30 PM 87.2°F30.7°C 64.5°F18.1°C 47% 4.6 mph WNW7.4 kmh WNW 5.8 mph9.3 kmh 30.01 in1016.3 mb - 0.00 in0.0 mm 0.00 in0.0 mm
03:40 PM 87.3°F30.7°C 64.0°F17.8°C 46% 2.3 mph N3.7 kmh N 3.5 mph5.6 kmh 30.00 in1015.9 mb - 0.00 in0.0 mm 0.00 in0.0 mm
03:50 PM 87.4°F30.8°C 63.5°F17.5°C 45% 2.3 mph NW3.7 kmh NW 3.5 mph5.6 kmh 30.00 in1015.9 mb - 0.00 in0.0 mm 0.00 in0.0 mm
04:00 PM 87.3°F30.7°C 64.0°F17.8°C 46% 2.3 mph NNE3.7 kmh NNE 3.5 mph5.6 kmh 30.00 in1015.9 mb - 0.00 in0.0 mm 0.00 in0.0 mm
04:10 PM 87.7°F30.9°C 65.6°F18.7°C 48% 2.3 mph WNW3.7 kmh WNW 4.6 mph7.4 kmh 29.99 in1015.6 mb - 0.00 in0.0 mm 0.00 in0.0 mm
04:20 PM 87.4°F30.8°C 65.9°F18.8°C 49% 4.6 mph NW7.4 kmh NW 4.6 mph7.4 kmh 30.00 in1015.9 mb - 0.00 in0.0 mm 0.00 in0.0 mm
04:30 PM 87.5°F30.8°C 66.6°F19.2°C 50% 3.5 mph NNW5.6 kmh NNW 4.6 mph7.4 kmh 29.99 in1015.6 mb - 0.00 in0.0 mm 0.00 in0.0 mm
04:40 PM 87.8°F31.0°C 66.2°F19.0°C 49% 1.2 mph NNW1.9 kmh NNW 3.5 mph5.6 kmh 29.99 in1015.6 mb - 0.00 in0.0 mm 0.00 in0.0 mm
04:50 PM 87.6°F30.9°C 67.3°F19.6°C 51% 2.3 mph NNE3.7 kmh NNE 4.6 mph7.4 kmh 29.99 in1015.6 mb - 0.00 in0.0 mm 0.00 in0.0 mm
05:00 PM 87.4°F30.8°C 68.2°F20.1°C 53% 2.3 mph NNE3.7 kmh NNE 3.5 mph5.6 kmh 29.99 in1015.6 mb - 0.00 in0.0 mm 0.00 in0.0 mm
05:10 PM 87.6°F30.9°C 67.8°F19.9°C 52% 1.2 mph N1.9 kmh N 3.5 mph5.6 kmh 29.99 in1015.6 mb - 0.00 in0.0 mm 0.00 in0.0 mm
05:20 PM 87.5°F30.8°C 68.8°F20.4°C 54% 1.2 mph SW1.9 kmh SW 4.6 mph7.4 kmh 29.99 in1015.6 mb - 0.00 in0.0 mm 0.00 in0.0 mm
05:30 PM 87.1°F30.6°C 69.5°F20.8°C 56% 4.6 mph SW7.4 kmh SW 5.8 mph9.3 kmh 29.99 in1015.6 mb - 0.00 in0.0 mm 0.00 in0.0 mm
05:40 PM 86.8°F30.4°C 70.2°F21.2°C 58% 3.5 mph WSW5.6 kmh WSW 3.5 mph5.6 kmh 29.99 in1015.6 mb - 0.00 in0.0 mm 0.00 in0.0 mm
05:50 PM 85.5°F29.7°C 69.5°F20.8°C 59% 2.3 mph SW3.7 kmh SW 3.5 mph5.6 kmh 29.99 in1015.6 mb - 0.00 in0.0 mm 0.00 in0.0 mm
06:00 PM 84.3°F29.1°C 70.8°F21.6°C 64% Calm Calm -- 29.99 in1015.6 mb - 0.00 in0.0 mm 0.00 in0.0 mm
06:10 PM 83.4°F28.6°C 72.2°F22.3°C 69% Calm Calm -- 29.99 in1015.6 mb - 0.00 in0.0 mm 0.00 in0.0 mm
06:20 PM 82.9°F28.3°C 70.8°F21.6°C 67% 1.2 mph SSW1.9 kmh SSW 3.5 mph5.6 kmh 29.99 in1015.6 mb - 0.00 in0.0 mm 0.00 in0.0 mm
06:30 PM 83.5°F28.6°C 71.9°F22.2°C 68% 2.3 mph SSW3.7 kmh SSW 3.5 mph5.6 kmh 29.99 in1015.6 mb - 0.00 in0.0 mm 0.00 in0.0 mm
06:40 PM 84.3°F29.1°C 70.8°F21.6°C 64% 2.3 mph S3.7 kmh S 3.5 mph5.6 kmh 29.98 in1015.2 mb - 0.00 in0.0 mm 0.00 in0.0 mm
06:50 PM 83.7°F28.7°C 71.1°F21.7°C 66% 1.2 mph SSW1.9 kmh SSW 2.3 mph3.7 kmh 29.98 in1015.2 mb - 0.00 in0.0 mm 0.00 in0.0 mm
07:00 PM 83.6°F28.7°C 70.1°F21.2°C 64% 1.2 mph S1.9 kmh S 5.8 mph9.3 kmh 29.98 in1015.2 mb - 0.00 in0.0 mm 0.00 in0.0 mm
07:10 PM 83.7°F28.7°C 70.7°F21.5°C 65% 2.3 mph S3.7 kmh S 4.6 mph7.4 kmh 29.97 in1014.9 mb - 0.00 in0.0 mm 0.00 in0.0 mm
07:20 PM 83.2°F28.4°C 69.8°F21.0°C 64% 3.5 mph SSW5.6 kmh SSW 5.8 mph9.3 kmh 29.97 in1014.9 mb - 0.00 in0.0 mm 0.00 in0.0 mm
07:30 PM 81.8°F27.7°C 69.8°F21.0°C 67% 1.2 mph SSW1.9 kmh SSW 2.3 mph3.7 kmh 29.98 in1015.2 mb - 0.00 in0.0 mm 0.00 in0.0 mm
07:40 PM 80.8°F27.1°C 71.0°F21.7°C 72% 1.2 mph SSW1.9 kmh SSW 2.3 mph3.7 kmh 29.98 in1015.2 mb - 0.00 in0.0 mm 0.00 in0.0 mm
07:50 PM 79.4°F26.3°C 70.8°F21.6°C 75% Calm Calm 2.3 mph3.7 kmh 29.98 in1015.2 mb - 0.00 in0.0 mm 0.00 in0.0 mm
08:00 PM 78.7°F25.9°C 70.9°F21.6°C 77% 1.2 mph S1.9 kmh S 1.2 mph1.9 kmh 29.99 in1015.6 mb - 0.00 in0.0 mm 0.00 in0.0 mm
08:10 PM 78.2°F25.7°C 70.0°F21.1°C 76% 2.3 mph SSW3.7 kmh SSW 3.5 mph5.6 kmh 29.99 in1015.6 mb - 0.00 in0.0 mm 0.00 in0.0 mm
08:20 PM 77.0°F25.0°C 69.6°F20.9°C 78% 1.2 mph SSW1.9 kmh SSW 3.5 mph5.6 kmh 29.99 in1015.6 mb - 0.00 in0.0 mm 0.00 in0.0 mm
08:30 PM 76.3°F24.6°C 69.4°F20.8°C 79% 1.2 mph SSW1.9 kmh SSW 2.3 mph3.7 kmh 29.99 in1015.6 mb - 0.00 in0.0 mm 0.00 in0.0 mm
08:40 PM 76.5°F24.7°C 69.1°F20.6°C 78% 2.3 mph SSW3.7 kmh SSW 3.5 mph5.6 kmh 30.00 in1015.9 mb - 0.00 in0.0 mm 0.00 in0.0 mm
08:50 PM 76.0°F24.4°C 68.3°F20.2°C 77% 1.2 mph SSW1.9 kmh SSW 3.5 mph5.6 kmh 30.00 in1015.9 mb - 0.00 in0.0 mm 0.00 in0.0 mm
09:00 PM 75.3°F24.1°C 68.7°F20.4°C 80% Calm Calm -- 30.01 in1016.3 mb - 0.00 in0.0 mm 0.00 in0.0 mm
09:10 PM 74.9°F23.8°C 68.7°F20.4°C 81% 1.2 mph SSW1.9 kmh SSW 2.3 mph3.7 kmh 30.02 in1016.6 mb - 0.00 in0.0 mm 0.00 in0.0 mm
09:20 PM 74.1°F23.4°C 68.3°F20.2°C 82% 2.3 mph SSW3.7 kmh SSW 3.5 mph5.6 kmh 30.01 in1016.3 mb - 0.00 in0.0 mm 0.00 in0.0 mm
09:30 PM 73.5°F23.1°C 67.6°F19.8°C 82% 1.2 mph SSW1.9 kmh SSW 2.3 mph3.7 kmh 30.02 in1016.6 mb - 0.00 in0.0 mm 0.00 in0.0 mm
09:40 PM 73.0°F22.8°C 67.5°F19.7°C 83% Calm Calm -- 30.02 in1016.6 mb - 0.00 in0.0 mm 0.00 in0.0 mm
09:50 PM 72.4°F22.4°C 67.6°F19.8°C 85% Calm Calm 1.2 mph1.9 kmh 30.02 in1016.6 mb - 0.00 in0.0 mm 0.00 in0.0 mm
10:00 PM 71.5°F21.9°C 67.4°F19.7°C 87% 1.2 mph SSW1.9 kmh SSW 2.3 mph3.7 kmh 30.02 in1016.6 mb - 0.00 in0.0 mm 0.00 in0.0 mm
10:10 PM 71.3°F21.8°C 67.3°F19.6°C 87% 1.2 mph SSW1.9 kmh SSW 3.5 mph5.6 kmh 30.02 in1016.6 mb - 0.00 in0.0 mm 0.00 in0.0 mm
10:20 PM 71.5°F21.9°C 67.4°F19.7°C 87% 1.2 mph SSW1.9 kmh SSW 3.5 mph5.6 kmh 30.03 in1016.9 mb - 0.00 in0.0 mm 0.00 in0.0 mm
10:30 PM 71.3°F21.8°C 67.2°F19.6°C 87% Calm Calm -- 30.03 in1016.9 mb - 0.00 in0.0 mm 0.00 in0.0 mm
10:40 PM 71.4°F21.9°C 67.7°F19.8°C 88% 1.2 mph SSW1.9 kmh SSW 2.3 mph3.7 kmh 30.02 in1016.6 mb - 0.00 in0.0 mm 0.00 in0.0 mm
10:50 PM 71.6°F22.0°C 67.5°F19.7°C 87% 2.3 mph SSW3.7 kmh SSW 3.5 mph5.6 kmh 30.02 in1016.6 mb - 0.00 in0.0 mm 0.00 in0.0 mm
11:00 PM 72.6°F22.6°C 67.9°F19.9°C 85% 2.3 mph SSW3.7 kmh SSW 3.5 mph5.6 kmh 30.02 in1016.6 mb - 0.00 in0.0 mm 0.00 in0.0 mm
11:10 PM 73.7°F23.2°C 68.2°F20.1°C 83% 2.3 mph SW3.7 kmh SW 4.6 mph7.4 kmh 30.02 in1016.6 mb - 0.00 in0.0 mm 0.00 in0.0 mm
11:20 PM 74.4°F23.6°C 68.6°F20.3°C 82% 3.5 mph SSW5.6 kmh SSW 5.8 mph9.3 kmh 30.02 in1016.6 mb - 0.00 in0.0 mm 0.00 in0.0 mm
11:30 PM 74.8°F23.8°C 68.6°F20.3°C 81% 2.3 mph SSW3.7 kmh SSW 4.6 mph7.4 kmh 30.02 in1016.6 mb - 0.00 in0.0 mm 0.00 in0.0 mm
11:40 PM 74.0°F23.3°C 68.5°F20.3°C 83% 3.5 mph WSW5.6 kmh WSW 5.8 mph9.3 kmh 30.03 in1016.9 mb - 0.00 in0.0 mm 0.00 in0.0 mm
11:50 PM 74.5°F23.6°C 69.4°F20.8°C 84% 3.5 mph W5.6 kmh W 4.6 mph7.4 kmh 30.03 in1016.9 mb - 0.00 in0.0 mm 0.00 in0.0 mm